Time;durP1;ratioP1;P1;durP2;ratioP2;P2;SDS_P1;SDS_P2;PMS_P1;PMS_P2;Temp;Humidity;BMP_temperature;BMP_pressure;BME280_temperature;BME280_humidity;BME280_pressure;Samples;Min_cycle;Max_cycle;Signal;HPM_P1;HPM_P2
2022/01/15 00:00:13;;;;;;;9.13;5.18;;;6.70;99.90;;;;;;5073865;28;20053;-75
2022/01/15 00:02:40;;;;;;;5.85;4.10;;;6.70;99.90;;;;;;5073954;28;20052;-74
2022/01/15 00:05:08;;;;;;;8.48;5.00;;;6.70;99.90;;;;;;5090192;28;20102;-75
2022/01/15 00:07:35;;;;;;;6.90;3.97;;;6.70;99.90;;;;;;5073585;28;20098;-74
2022/01/15 00:10:04;;;;;;;7.10;4.15;;;6.70;99.90;;;;;;5075043;28;20048;-75
2022/01/15 00:12:38;;;;;;;6.03;3.80;;;6.70;99.90;;;;;;5090388;28;20056;-75
2022/01/15 00:15:06;;;;;;;5.82;3.58;;;6.70;99.90;;;;;;5073834;28;20048;-74
2022/01/15 00:17:45;;;;;;;6.20;4.10;;;6.70;99.90;;;;;;5073723;28;20052;-75
2022/01/15 00:20:16;;;;;;;4.75;3.08;;;6.70;99.90;;;;;;5072548;28;20148;-75
2022/01/15 00:22:43;;;;;;;6.65;3.25;;;6.70;99.90;;;;;;5074199;28;20138;-74
2022/01/15 00:25:12;;;;;;;4.05;2.97;;;6.70;99.90;;;;;;5073753;28;20045;-76
2022/01/15 00:27:39;;;;;;;4.47;2.58;;;6.60;99.90;;;;;;5073180;28;20189;-75
2022/01/15 00:30:08;;;;;;;4.82;2.70;;;6.70;99.90;;;;;;5073536;28;20060;-75
2022/01/15 00:32:35;;;;;;;3.55;2.35;;;6.60;99.90;;;;;;5073238;28;20137;-75
2022/01/15 00:35:02;;;;;;;4.65;2.75;;;6.70;99.90;;;;;;5073240;28;20048;-75
2022/01/15 00:37:31;;;;;;;4.90;2.92;;;6.70;99.90;;;;;;5073419;28;20063;-76
2022/01/15 00:39:58;;;;;;;5.95;3.30;;;6.70;99.90;;;;;;5072956;28;20048;-76
2022/01/15 00:42:27;;;;;;;5.63;3.35;;;6.70;99.90;;;;;;5073350;28;20059;-75
2022/01/15 00:44:55;;;;;;;6.13;3.78;;;6.60;99.90;;;;;;5073401;28;20052;-76
2022/01/15 00:47:23;;;;;;;6.63;4.78;;;6.60;99.90;;;;;;5073057;28;20135;-76
2022/01/15 00:49:50;;;;;;;7.30;4.43;;;6.60;99.90;;;;;;5073126;28;20477;-76
2022/01/15 00:52:16;;;;;;;6.30;3.53;;;6.60;99.90;;;;;;5073334;28;20510;-77
2022/01/15 00:54:43;;;;;;;6.13;3.38;;;6.50;99.90;;;;;;5072430;28;20048;-76
2022/01/15 00:57:10;;;;;;;4.13;2.72;;;6.50;99.90;;;;;;5073454;28;20048;-77
2022/01/15 00:59:38;;;;;;;4.88;2.58;;;6.60;99.90;;;;;;5072683;28;20057;-75
2022/01/15 01:02:05;;;;;;;3.65;2.42;;;6.50;99.90;;;;;;5072235;28;20056;-77
2022/01/15 01:04:32;;;;;;;4.97;2.08;;;6.50;99.90;;;;;;5074308;28;20447;-77
2022/01/15 01:06:59;;;;;;;3.55;1.80;;;6.50;99.90;;;;;;5072769;28;20072;-77
2022/01/15 01:09:35;;;;;;;2.78;1.80;;;6.50;99.90;;;;;;5073695;28;20090;-76
2022/01/15 01:12:20;;;;;;;3.75;1.70;;;6.50;99.90;;;;;;5074989;28;20484;-76
2022/01/15 01:20:24;;;;;;;4.22;1.40;;;6.60;99.90;;;;;;5038825;28;20506;-75
2022/01/15 01:22:55;;;;;;;3.10;1.60;;;6.50;99.90;;;;;;5052111;28;20053;-75
2022/01/15 01:25:24;;;;;;;2.67;1.50;;;6.50;99.90;;;;;;5052737;28;20045;-75
2022/01/15 01:27:55;;;;;;;3.47;1.73;;;6.40;99.90;;;;;;5052696;28;20488;-75
2022/01/15 01:30:27;;;;;;;3.15;1.55;;;6.40;99.90;;;;;;5052129;28;20056;-74
2022/01/15 01:33:02;;;;;;;2.90;1.20;;;6.30;99.90;;;;;;5053777;28;20053;-75
2022/01/15 01:35:34;;;;;;;2.60;1.30;;;6.40;99.90;;;;;;5059759;28;20098;-74
2022/01/15 01:38:10;;;;;;;3.17;1.50;;;6.50;99.90;;;;;;5072096;28;20056;-76
2022/01/15 01:40:41;;;;;;;2.72;1.52;;;6.30;99.90;;;;;;5075919;28;20052;-74
2022/01/15 01:43:28;;;;;;;3.00;1.58;;;6.30;99.90;;;;;;5087193;28;20055;-75
2022/01/15 01:46:11;;;;;;;3.70;1.38;;;6.30;99.90;;;;;;5086617;28;20055;-75
2022/01/15 01:48:39;;;;;;;2.00;1.13;;;6.30;99.90;;;;;;5097959;28;20048;-75
2022/01/15 01:51:07;;;;;;;2.83;1.52;;;6.30;99.90;;;;;;5078941;28;20048;-75
2022/01/15 01:53:35;;;;;;;2.92;0.98;;;6.30;99.90;;;;;;5072946;28;20590;-75
2022/01/15 01:56:02;;;;;;;2.10;1.00;;;6.30;99.90;;;;;;5072505;28;20106;-75
2022/01/15 01:58:29;;;;;;;1.98;0.82;;;6.30;99.90;;;;;;5073083;28;20052;-76
2022/01/15 02:00:57;;;;;;;1.70;1.10;;;6.30;99.90;;;;;;5071979;28;20404;-77
2022/01/15 02:03:24;;;;;;;3.70;1.15;;;6.30;99.90;;;;;;5072585;28;20435;-77
2022/01/15 02:05:51;;;;;;;2.42;1.10;;;6.30;99.90;;;;;;5071035;28;20539;-76
2022/01/15 02:08:18;;;;;;;4.47;1.35;;;6.30;99.90;;;;;;5073058;28;20048;-75
2022/01/15 02:10:45;;;;;;;2.17;1.23;;;6.30;99.90;;;;;;5072211;28;20443;-75
2022/01/15 02:13:13;;;;;;;2.13;1.00;;;6.30;99.90;;;;;;5071559;28;20409;-75
2022/01/15 02:15:40;;;;;;;2.17;1.17;;;6.30;99.90;;;;;;5071798;28;20052;-75
2022/01/15 02:18:09;;;;;;;2.92;1.00;;;6.30;99.90;;;;;;5071476;28;20139;-74
2022/01/15 02:21:01;;;;;;;3.00;1.35;;;6.30;99.90;;;;;;5071557;28;20053;-74
2022/01/15 02:23:34;;;;;;;3.00;1.45;;;6.30;99.90;;;;;;5071989;28;20480;-75
2022/01/15 02:26:04;;;;;;;2.15;1.10;;;6.30;99.90;;;;;;5086492;28;20048;-75
2022/01/15 02:28:33;;;;;;;2.00;1.23;;;6.20;99.90;;;;;;5072054;28;20076;-75
2022/01/15 02:31:02;;;;;;;2.30;1.08;;;6.30;99.90;;;;;;5088631;28;20102;-75
2022/01/15 02:33:29;;;;;;;2.55;1.17;;;6.20;99.90;;;;;;5074234;28;20066;-75
2022/01/15 02:35:58;;;;;;;2.97;1.40;;;6.20;99.90;;;;;;5077014;28;20118;-75
2022/01/15 02:38:26;;;;;;;2.40;1.10;;;6.30;99.90;;;;;;5079428;28;20053;-75
2022/01/15 02:40:53;;;;;;;2.90;1.40;;;6.20;99.90;;;;;;5073006;28;20078;-74
2022/01/15 02:43:28;;;;;;;3.00;1.40;;;6.20;99.90;;;;;;5072882;28;20040;-75
2022/01/15 02:45:56;;;;;;;3.17;1.30;;;6.20;99.90;;;;;;5071595;28;20056;-74
2022/01/15 02:48:25;;;;;;;3.47;1.45;;;6.20;99.90;;;;;;5087781;28;20082;-75
2022/01/15 02:50:52;;;;;;;3.75;1.58;;;6.20;99.90;;;;;;5071429;28;20052;-75
2022/01/15 02:53:20;;;;;;;4.10;1.65;;;6.20;99.90;;;;;;5072622;28;20056;-75
2022/01/15 02:55:49;;;;;;;2.38;1.27;;;6.50;99.90;;;;;;5092039;28;20102;-75
2022/01/15 02:58:18;;;;;;;3.90;1.70;;;6.20;99.90;;;;;;5092303;28;20052;-74
2022/01/15 03:00:46;;;;;;;3.83;1.58;;;6.20;99.90;;;;;;5091089;28;20118;-75
2022/01/15 03:03:13;;;;;;;3.28;1.40;;;6.10;99.90;;;;;;5075656;28;20056;-75
2022/01/15 03:05:40;;;;;;;4.38;1.45;;;6.20;99.90;;;;;;5075015;28;20056;-75
2022/01/15 03:08:07;;;;;;;3.17;1.27;;;6.20;99.90;;;;;;5074691;28;20091;-75
2022/01/15 03:10:35;;;;;;;3.40;1.33;;;6.20;99.90;;;;;;5074763;28;20045;-75
2022/01/15 03:13:09;;;;;;;2.97;1.48;;;6.20;99.90;;;;;;5075327;28;20421;-76
2022/01/15 03:15:36;;;;;;;3.42;1.58;;;6.20;99.90;;;;;;5074357;28;20050;-75
2022/01/15 03:18:03;;;;;;;3.38;1.52;;;6.10;99.90;;;;;;5075082;28;20064;-75
2022/01/15 03:20:30;;;;;;;6.05;1.83;;;6.10;99.90;;;;;;5074702;28;20056;-75
2022/01/15 03:22:57;;;;;;;2.67;1.25;;;6.10;99.90;;;;;;5074476;28;20056;-76
2022/01/15 03:25:24;;;;;;;2.83;1.48;;;6.20;99.90;;;;;;5092076;28;20102;-76
2022/01/15 03:27:54;;;;;;;3.42;1.40;;;6.10;99.90;;;;;;5075197;28;20542;-77
2022/01/15 03:30:21;;;;;;;3.00;1.50;;;6.10;99.90;;;;;;5074544;28;20130;-77
2022/01/15 03:32:48;;;;;;;3.13;1.70;;;6.10;99.90;;;;;;5091806;28;20137;-75
2022/01/15 03:35:16;;;;;;;5.13;2.38;;;6.20;99.90;;;;;;5074703;28;20098;-75
2022/01/15 03:37:44;;;;;;;3.47;1.88;;;6.20;99.90;;;;;;5073981;28;20060;-76
2022/01/15 03:40:14;;;;;;;3.17;1.55;;;6.20;99.90;;;;;;5074687;28;20049;-76
2022/01/15 03:42:41;;;;;;;3.05;1.80;;;6.20;99.90;;;;;;5074034;28;20048;-75
2022/01/15 03:45:11;;;;;;;2.75;1.38;;;6.10;99.90;;;;;;5074779;28;20056;-75
2022/01/15 03:47:38;;;;;;;3.50;2.03;;;6.20;99.90;;;;;;5074712;28;20056;-76
2022/01/15 03:50:06;;;;;;;2.40;1.40;;;6.20;99.90;;;;;;5074082;28;20095;-76
2022/01/15 03:52:33;;;;;;;2.72;1.30;;;6.10;99.90;;;;;;5074450;28;20113;-75
2022/01/15 03:55:00;;;;;;;3.80;1.65;;;6.20;99.90;;;;;;5074347;28;20094;-76
2022/01/15 03:57:26;;;;;;;3.95;1.48;;;6.00;99.90;;;;;;5073655;28;20049;-75
2022/01/15 03:59:53;;;;;;;4.57;1.98;;;6.10;99.90;;;;;;5074113;28;20096;-74
2022/01/15 04:02:21;;;;;;;5.03;1.92;;;6.10;99.90;;;;;;5074425;28;20106;-74
2022/01/15 04:04:48;;;;;;;4.60;2.40;;;6.10;99.90;;;;;;5089817;28;20382;-74
2022/01/15 04:07:15;;;;;;;4.03;2.17;;;6.10;99.90;;;;;;5090916;28;20052;-74
2022/01/15 04:09:42;;;;;;;5.60;2.97;;;6.10;99.90;;;;;;5090841;28;20090;-75
2022/01/15 04:12:09;;;;;;;6.53;2.67;;;6.10;99.90;;;;;;5073570;28;20557;-75
2022/01/15 04:14:36;;;;;;;4.32;2.25;;;6.10;99.90;;;;;;5074246;28;20165;-75
2022/01/15 04:17:03;;;;;;;5.38;2.67;;;6.10;99.90;;;;;;5073572;28;20110;-75
2022/01/15 04:19:33;;;;;;;3.67;1.70;;;6.10;99.90;;;;;;5073388;28;20519;-75
2022/01/15 04:22:00;;;;;;;4.57;1.60;;;6.00;99.90;;;;;;5074152;28;20135;-74
2022/01/15 04:24:27;;;;;;;4.32;1.90;;;6.00;99.90;;;;;;5075118;28;20048;-74
2022/01/15 04:26:54;;;;;;;4.75;2.22;;;6.00;99.90;;;;;;5073076;28;20052;-74
2022/01/15 04:29:21;;;;;;;3.70;2.13;;;6.00;99.90;;;;;;5074185;28;20388;-74
2022/01/15 04:31:48;;;;;;;3.00;1.98;;;6.10;99.90;;;;;;5072778;28;20139;-73
2022/01/15 04:34:17;;;;;;;3.65;1.92;;;6.00;99.90;;;;;;5073648;28;20054;-74
2022/01/15 04:36:45;;;;;;;3.95;1.80;;;6.00;99.90;;;;;;5073622;28;20442;-74
2022/01/15 04:39:13;;;;;;;4.95;1.92;;;6.10;99.90;;;;;;5072982;28;20055;-74
2022/01/15 04:41:40;;;;;;;4.70;2.45;;;6.00;99.90;;;;;;5073725;28;20095;-74
2022/01/15 04:44:07;;;;;;;3.35;1.70;;;6.00;99.90;;;;;;5073711;28;20503;-74
2022/01/15 04:46:36;;;;;;;4.38;2.30;;;6.10;99.90;;;;;;5072717;28;20454;-73
2022/01/15 04:49:03;;;;;;;5.15;2.17;;;6.00;99.90;;;;;;5073553;28;20487;-74
2022/01/15 04:51:30;;;;;;;3.88;2.70;;;6.00;99.90;;;;;;5090362;28;20142;-75
2022/01/15 04:53:58;;;;;;;5.00;2.80;;;6.00;99.90;;;;;;5090093;28;20079;-75
2022/01/15 04:56:25;;;;;;;5.43;2.53;;;6.00;99.90;;;;;;5089979;28;20102;-74
2022/01/15 04:58:52;;;;;;;6.32;2.60;;;6.00;99.90;;;;;;5089906;28;20447;-76
2022/01/15 05:01:19;;;;;;;4.10;2.47;;;6.20;99.90;;;;;;5072327;28;20405;-75
2022/01/15 05:03:46;;;;;;;5.45;2.72;;;6.00;99.90;;;;;;5090051;28;20060;-75
2022/01/15 05:06:13;;;;;;;5.28;2.65;;;6.10;99.90;;;;;;5073013;28;20045;-76
2022/01/15 05:08:40;;;;;;;4.35;2.22;;;6.10;99.90;;;;;;5089490;28;20048;-75
2022/01/15 05:11:15;;;;;;;5.82;2.60;;;6.10;99.90;;;;;;5090193;28;20056;-76
2022/01/15 05:13:42;;;;;;;5.55;2.30;;;6.10;99.90;;;;;;5072860;28;20052;-74
2022/01/15 05:16:09;;;;;;;4.28;2.38;;;6.10;99.90;;;;;;5070649;28;20041;-76
2022/01/15 05:18:36;;;;;;;4.30;2.33;;;6.10;99.90;;;;;;5089122;28;20052;-75
2022/01/15 05:21:03;;;;;;;5.10;2.75;;;6.10;99.90;;;;;;5072368;28;20109;-75
2022/01/15 05:23:30;;;;;;;4.95;2.38;;;6.10;99.90;;;;;;5089574;28;20048;-75
2022/01/15 05:25:56;;;;;;;4.57;2.58;;;6.10;99.90;;;;;;5072590;28;20099;-75
2022/01/15 05:28:25;;;;;;;5.55;2.78;;;6.10;99.90;;;;;;5088377;28;20052;-75
2022/01/15 05:30:51;;;;;;;6.10;2.92;;;6.10;99.90;;;;;;5089220;28;20102;-75
2022/01/15 05:33:18;;;;;;;4.45;2.47;;;6.10;99.90;;;;;;5072279;28;20056;-73
2022/01/15 05:35:45;;;;;;;4.60;2.67;;;6.10;99.90;;;;;;5071513;28;20055;-73
2022/01/15 05:38:12;;;;;;;4.70;2.45;;;6.10;99.90;;;;;;5072325;28;20048;-75
2022/01/15 05:40:39;;;;;;;5.55;2.97;;;6.10;99.90;;;;;;5072467;28;20530;-75
2022/01/15 05:43:06;;;;;;;3.90;2.50;;;6.10;99.90;;;;;;5088534;28;20114;-75
2022/01/15 05:45:34;;;;;;;7.05;3.10;;;6.10;99.90;;;;;;5072505;28;20052;-75
2022/01/15 05:48:01;;;;;;;5.55;3.13;;;6.10;99.90;;;;;;5089068;28;20488;-75
2022/01/15 05:50:28;;;;;;;4.97;2.53;;;6.10;99.90;;;;;;5071564;28;20052;-75
2022/01/15 05:52:55;;;;;;;4.82;2.33;;;6.10;99.90;;;;;;5089342;28;20064;-75
2022/01/15 05:55:22;;;;;;;6.03;2.80;;;6.10;99.90;;;;;;5071859;28;20094;-74
2022/01/15 05:57:48;;;;;;;4.47;2.40;;;6.20;99.90;;;;;;5071316;28;20049;-76
2022/01/15 06:00:16;;;;;;;5.75;2.55;;;6.20;99.90;;;;;;5077557;28;20087;-75
2022/01/15 06:02:44;;;;;;;5.70;2.60;;;6.20;99.90;;;;;;5082542;28;20052;-75
2022/01/15 06:05:11;;;;;;;4.95;2.88;;;6.10;99.90;;;;;;5074650;28;20040;-75
2022/01/15 06:07:38;;;;;;;5.13;3.03;;;6.10;99.90;;;;;;5072860;28;20098;-75
2022/01/15 06:10:06;;;;;;;4.43;2.72;;;6.10;99.90;;;;;;5072060;28;20397;-75
2022/01/15 06:12:41;;;;;;;4.95;2.80;;;6.10;99.90;;;;;;5071328;28;20048;-74
2022/01/15 06:15:09;;;;;;;5.55;2.70;;;6.10;99.90;;;;;;5071930;28;20049;-74
2022/01/15 06:17:36;;;;;;;4.60;2.60;;;6.10;99.90;;;;;;5070979;28;20052;-75
2022/01/15 06:20:05;;;;;;;5.20;2.95;;;6.10;99.90;;;;;;5072195;28;20052;-75
2022/01/15 06:22:32;;;;;;;6.60;2.83;;;6.10;99.90;;;;;;5071706;28;20053;-75
2022/01/15 06:24:59;;;;;;;5.00;3.03;;;6.10;99.90;;;;;;5071222;28;20123;-75
2022/01/15 06:27:25;;;;;;;6.45;3.45;;;6.10;99.90;;;;;;5071879;28;20546;-75
2022/01/15 06:29:52;;;;;;;5.43;3.22;;;6.00;99.90;;;;;;5076122;28;20052;-75
2022/01/15 06:32:19;;;;;;;4.93;3.03;;;6.00;99.90;;;;;;5075194;28;20048;-74
2022/01/15 06:34:46;;;;;;;5.38;3.30;;;6.00;99.90;;;;;;5075992;28;20080;-74
2022/01/15 06:37:14;;;;;;;5.53;3.35;;;6.00;99.90;;;;;;5075889;28;20048;-75
2022/01/15 06:39:41;;;;;;;6.93;3.92;;;6.00;99.90;;;;;;5075073;28;20496;-75
2022/01/15 06:42:08;;;;;;;6.82;3.28;;;6.20;99.90;;;;;;5092725;28;20472;-74
2022/01/15 06:44:35;;;;;;;5.45;3.35;;;6.00;99.90;;;;;;5092822;28;20057;-75
2022/01/15 06:47:02;;;;;;;5.22;2.97;;;6.00;99.90;;;;;;5075146;28;20149;-75
2022/01/15 06:49:29;;;;;;;5.25;3.20;;;6.00;99.90;;;;;;5075818;28;20056;-75
2022/01/15 06:51:56;;;;;;;5.18;3.08;;;6.00;99.90;;;;;;5075447;28;20496;-75
2022/01/15 06:54:24;;;;;;;5.60;3.05;;;6.00;99.90;;;;;;5073730;28;20107;-75
2022/01/15 06:56:51;;;;;;;5.72;3.35;;;6.00;99.90;;;;;;5056049;28;20045;-75
2022/01/15 06:59:18;;;;;;;5.30;3.45;;;5.90;99.90;;;;;;5056437;28;20064;-75
2022/01/15 07:01:44;;;;;;;5.30;2.70;;;5.90;99.90;;;;;;5072549;28;20099;-75
2022/01/15 07:04:12;;;;;;;6.85;3.70;;;6.10;99.90;;;;;;5074448;28;20049;-75
2022/01/15 07:06:38;;;;;;;5.00;2.88;;;5.90;99.90;;;;;;5078393;28;20045;-74
2022/01/15 07:09:05;;;;;;;5.45;3.00;;;5.90;99.90;;;;;;5064824;28;20052;-74
2022/01/15 07:11:33;;;;;;;4.57;2.70;;;5.90;99.90;;;;;;5083045;28;20048;-74
2022/01/15 07:14:00;;;;;;;5.90;3.00;;;5.90;99.90;;;;;;5076601;28;20051;-75
2022/01/15 07:16:27;;;;;;;3.95;2.35;;;5.90;99.90;;;;;;5081062;28;20044;-74
2022/01/15 07:18:54;;;;;;;3.15;1.65;;;5.80;99.90;;;;;;5075987;28;20052;-75
2022/01/15 07:21:21;;;;;;;4.65;2.10;;;5.80;99.90;;;;;;5074887;28;20471;-75
2022/01/15 07:23:48;;;;;;;3.67;1.92;;;5.80;99.90;;;;;;5072110;28;20538;-73
2022/01/15 07:26:14;;;;;;;3.25;2.03;;;5.90;99.90;;;;;;5083657;28;20109;-74
2022/01/15 07:28:43;;;;;;;3.42;2.00;;;5.80;99.90;;;;;;5081703;28;20064;-74
2022/01/15 07:31:10;;;;;;;4.75;2.40;;;5.90;99.90;;;;;;5074598;28;20056;-74
2022/01/15 07:33:37;;;;;;;3.22;1.88;;;5.80;99.90;;;;;;5087468;28;20052;-73
2022/01/15 07:36:04;;;;;;;3.63;2.15;;;5.80;99.90;;;;;;5098589;28;20033;-73
2022/01/15 07:38:31;;;;;;;3.97;2.42;;;5.80;99.90;;;;;;5098435;28;20118;-74
2022/01/15 07:40:59;;;;;;;3.55;2.20;;;5.90;99.90;;;;;;5097201;28;20059;-75
2022/01/15 07:43:27;;;;;;;3.50;2.13;;;5.80;99.90;;;;;;5096306;28;20048;-73
2022/01/15 07:45:55;;;;;;;3.03;1.80;;;5.80;99.90;;;;;;5093385;28;20075;-74
2022/01/15 07:48:22;;;;;;;4.60;2.22;;;5.80;99.90;;;;;;5096286;28;20037;-74
2022/01/15 07:50:49;;;;;;;3.95;2.45;;;5.80;99.90;;;;;;5103058;28;20088;-76
2022/01/15 07:53:16;;;;;;;4.13;2.75;;;5.80;99.90;;;;;;5091493;28;20436;-75
2022/01/15 07:55:43;;;;;;;3.50;1.98;;;5.80;99.90;;;;;;5072342;28;20448;-75
2022/01/15 07:58:10;;;;;;;5.50;2.80;;;5.80;99.90;;;;;;5072842;28;20098;-74
2022/01/15 08:00:37;;;;;;;5.90;3.05;;;5.80;99.90;;;;;;5081410;28;20447;-74
2022/01/15 08:03:05;;;;;;;5.38;2.70;;;5.80;99.90;;;;;;5072505;28;20572;-74
2022/01/15 08:05:32;;;;;;;5.93;3.53;;;5.90;99.90;;;;;;5073323;28;20048;-74
2022/01/15 08:07:59;;;;;;;5.28;2.85;;;5.80;99.90;;;;;;5073886;28;20561;-73
2022/01/15 08:10:26;;;;;;;5.55;2.92;;;5.80;99.90;;;;;;5072049;28;20105;-74
2022/01/15 08:12:53;;;;;;;6.93;3.08;;;5.80;99.90;;;;;;5073271;28;20098;-74
2022/01/15 08:15:21;;;;;;;5.00;2.90;;;5.80;99.90;;;;;;5072000;28;20052;-73
2022/01/15 08:17:49;;;;;;;5.85;3.05;;;5.80;99.90;;;;;;5071863;28;20060;-74
2022/01/15 08:20:17;;;;;;;6.38;3.35;;;5.90;99.90;;;;;;5072665;28;20446;-73
2022/01/15 08:22:45;;;;;;;5.97;3.35;;;5.80;99.90;;;;;;5073238;28;20488;-72
2022/01/15 08:25:13;;;;;;;5.35;2.80;;;5.80;99.90;;;;;;5081109;28;20071;-73
2022/01/15 08:27:40;;;;;;;4.78;2.90;;;5.80;99.90;;;;;;5073782;28;20102;-74
2022/01/15 08:30:09;;;;;;;6.32;3.03;;;5.80;99.90;;;;;;5072745;28;20401;-73
2022/01/15 08:32:36;;;;;;;7.03;3.55;;;5.80;99.90;;;;;;5069757;28;20079;-74
2022/01/15 08:35:05;;;;;;;5.60;3.35;;;5.80;99.90;;;;;;5072945;28;20052;-73
2022/01/15 08:37:34;;;;;;;6.47;3.47;;;5.80;99.90;;;;;;5072224;28;20094;-73
2022/01/15 08:40:01;;;;;;;4.95;2.90;;;5.80;99.90;;;;;;5080533;28;20048;-74
2022/01/15 08:42:27;;;;;;;6.82;3.60;;;5.80;99.90;;;;;;5073289;28;20044;-74
2022/01/15 08:44:54;;;;;;;9.23;3.60;;;5.80;99.90;;;;;;5072600;28;20090;-73
2022/01/15 08:47:21;;;;;;;8.30;3.95;;;5.80;99.90;;;;;;5080240;28;20044;-73
2022/01/15 08:49:48;;;;;;;6.32;3.60;;;5.80;99.90;;;;;;5072411;28;20052;-72
2022/01/15 08:52:15;;;;;;;7.18;3.88;;;5.80;99.90;;;;;;5079900;28;20098;-73
2022/01/15 08:54:44;;;;;;;6.93;4.10;;;5.80;99.90;;;;;;5071764;28;20052;-74
2022/01/15 08:57:11;;;;;;;5.20;3.20;;;5.80;99.90;;;;;;5066854;28;20614;-73
2022/01/15 08:59:37;;;;;;;8.60;3.58;;;5.80;99.90;;;;;;5067179;28;20079;-73
2022/01/15 09:02:04;;;;;;;6.03;3.20;;;5.80;99.90;;;;;;5076323;28;20389;-73
2022/01/15 09:04:31;;;;;;;6.65;3.72;;;5.80;99.90;;;;;;5070985;28;20094;-73
2022/01/15 09:06:58;;;;;;;8.63;2.90;;;5.80;99.90;;;;;;5070412;28;20554;-73
2022/01/15 09:09:25;;;;;;;5.75;2.70;;;5.80;99.90;;;;;;5071069;28;20101;-73
2022/01/15 09:11:53;;;;;;;5.18;2.63;;;5.80;99.90;;;;;;5079911;28;20117;-73
2022/01/15 09:14:20;;;;;;;4.30;2.30;;;5.80;99.90;;;;;;5069299;28;20500;-72
2022/01/15 09:16:47;;;;;;;5.20;3.03;;;5.80;99.90;;;;;;5071477;28;20110;-74
2022/01/15 09:19:14;;;;;;;3.80;2.05;;;5.80;99.90;;;;;;5068600;28;20101;-74
2022/01/15 09:21:41;;;;;;;4.95;2.10;;;5.80;99.90;;;;;;5070373;28;20056;-74
2022/01/15 09:24:07;;;;;;;4.18;2.30;;;5.70;99.90;;;;;;5070778;28;20106;-74
2022/01/15 09:26:49;;;;;;;4.18;2.35;;;5.70;99.90;;;;;;5068818;28;20118;-74
2022/01/15 09:32:04;;;;;;;4.07;2.45;;;5.90;99.90;;;;;;5068830;28;20492;-75
2022/01/15 09:34:32;;;;;;;3.50;1.90;;;6.10;99.90;;;;;;5070549;28;20144;-74
2022/01/15 09:36:59;;;;;;;3.22;1.80;;;6.00;99.90;;;;;;5068132;28;20123;-73
2022/01/15 09:39:26;;;;;;;4.72;2.15;;;5.80;99.90;;;;;;5071013;28;20052;-73
2022/01/15 09:41:54;;;;;;;4.72;2.95;;;5.80;99.90;;;;;;5070502;28;20580;-73
2022/01/15 09:44:24;;;;;;;4.95;3.03;;;5.70;99.90;;;;;;5070835;28;20522;-72
2022/01/15 09:46:52;;;;;;;6.45;2.95;;;5.70;99.90;;;;;;5088207;28;20307;-72
2022/01/15 09:49:22;;;;;;;5.38;3.47;;;5.70;99.90;;;;;;5070752;28;20122;-73
2022/01/15 09:51:49;;;;;;;4.65;2.88;;;5.70;99.90;;;;;;5070977;28;20518;-73
2022/01/15 09:54:17;;;;;;;5.65;3.17;;;5.70;99.90;;;;;;5070276;28;20189;-73
2022/01/15 09:56:46;;;;;;;7.68;4.22;;;5.70;99.90;;;;;;5068749;28;20086;-72
2022/01/15 09:59:14;;;;;;;7.30;3.80;;;5.70;99.90;;;;;;5087662;28;20099;-74
2022/01/15 10:01:44;;;;;;;7.60;4.45;;;5.70;99.90;;;;;;5070625;28;20389;-73
2022/01/15 10:04:10;;;;;;;9.15;5.00;;;5.60;99.90;;;;;;5070894;28;20120;-73
2022/01/15 10:06:37;;;;;;;8.85;5.13;;;5.60;99.90;;;;;;5087987;28;20098;-73
2022/01/15 10:09:06;;;;;;;12.60;5.43;;;5.70;99.90;;;;;;5068756;28;20072;-72
2022/01/15 10:11:40;;;;;;;8.93;5.75;;;5.60;99.90;;;;;;5069615;28;20348;-74
2022/01/15 10:14:23;;;;;;;10.75;6.18;;;5.70;99.90;;;;;;5083776;28;20410;-74
2022/01/15 10:16:52;;;;;;;9.50;5.40;;;5.60;99.90;;;;;;5068742;28;20037;-74
2022/01/15 10:19:26;;;;;;;10.13;5.78;;;5.60;99.90;;;;;;5070179;28;20126;-74
2022/01/15 10:22:10;;;;;;;9.50;5.05;;;5.70;99.90;;;;;;5070215;28;20496;-73
2022/01/15 10:24:38;;;;;;;10.43;5.80;;;5.70;99.90;;;;;;5070172;28;20055;-72
2022/01/15 10:27:25;;;;;;;8.80;5.43;;;5.80;99.90;;;;;;5087197;28;20053;-75
2022/01/15 10:29:58;;;;;;;9.75;5.75;;;5.80;99.90;;;;;;5070477;28;20098;-74
2022/01/15 10:32:27;;;;;;;8.75;5.00;;;5.80;99.90;;;;;;5070247;28;20053;-75
2022/01/15 10:34:54;;;;;;;9.35;5.13;;;5.90;99.90;;;;;;5071054;28;20105;-74
2022/01/15 10:37:22;;;;;;;9.85;5.18;;;5.90;99.90;;;;;;5087853;28;20490;-75
2022/01/15 10:39:59;;;;;;;11.00;6.47;;;5.80;99.90;;;;;;5070783;28;20052;-75
2022/01/15 10:42:27;;;;;;;11.40;6.50;;;5.90;99.90;;;;;;5071840;28;20400;-75
2022/01/15 10:44:56;;;;;;;9.52;5.65;;;5.90;99.90;;;;;;5087996;28;20060;-74
2022/01/15 10:47:25;;;;;;;11.68;6.93;;;5.90;99.90;;;;;;5071443;28;20044;-74
2022/01/15 10:49:58;;;;;;;10.55;6.20;;;5.90;99.90;;;;;;5072049;28;20052;-74
2022/01/15 10:52:26;;;;;;;11.68;6.13;;;5.90;99.90;;;;;;5071071;28;20058;-74
2022/01/15 10:55:02;;;;;;;11.43;6.47;;;6.10;99.90;;;;;;5072928;28;20110;-74
2022/01/15 10:57:32;;;;;;;14.00;6.57;;;5.90;99.90;;;;;;5070940;28;20045;-74
2022/01/15 11:00:17;;;;;;;14.25;7.50;;;5.90;99.90;;;;;;5071127;28;20118;-75
2022/01/15 11:02:46;;;;;;;12.65;6.32;;;5.90;99.90;;;;;;5071307;28;20049;-74
2022/01/15 11:05:37;;;;;;;12.93;6.50;;;5.90;99.90;;;;;;5071619;28;20101;-74
2022/01/15 11:08:08;;;;;;;11.85;5.97;;;5.80;99.90;;;;;;5066306;28;20102;-74
2022/01/15 11:10:42;;;;;;;11.60;6.07;;;5.80;99.90;;;;;;5071390;28;20048;-73
2022/01/15 11:13:11;;;;;;;13.65;6.93;;;5.80;99.90;;;;;;5087993;28;20534;-73
2022/01/15 11:15:39;;;;;;;12.82;7.10;;;5.70;99.90;;;;;;5091482;28;20519;-73
2022/01/15 11:18:07;;;;;;;11.20;6.82;;;5.80;99.90;;;;;;5072903;28;20041;-73
2022/01/15 11:20:34;;;;;;;13.90;8.27;;;5.70;99.90;;;;;;5071888;28;20110;-73
2022/01/15 11:23:04;;;;;;;16.20;7.38;;;5.80;99.90;;;;;;5091378;28;20060;-73
2022/01/15 11:25:31;;;;;;;13.93;7.47;;;5.80;99.90;;;;;;5074058;28;20048;-73
2022/01/15 11:27:58;;;;;;;12.82;6.75;;;5.80;99.90;;;;;;5073611;28;20048;-74
2022/01/15 11:30:26;;;;;;;16.98;8.52;;;5.80;99.90;;;;;;5091352;28;20106;-73
2022/01/15 11:32:54;;;;;;;15.05;8.32;;;5.80;99.90;;;;;;5074381;28;20052;-74
2022/01/15 11:35:21;;;;;;;19.10;8.85;;;5.70;99.90;;;;;;5073756;28;20056;-74
2022/01/15 11:37:52;;;;;;;15.52;8.32;;;5.70;99.90;;;;;;5090586;28;20044;-73
2022/01/15 11:40:40;;;;;;;14.05;8.02;;;5.70;99.90;;;;;;5073494;28;20548;-73
2022/01/15 11:43:50;;;;;;;17.02;9.38;;;5.70;99.90;;;;;;5053677;28;20052;-73
2022/01/15 11:46:42;;;;;;;16.30;9.18;;;5.70;99.90;;;;;;5068629;28;20526;-74
2022/01/15 11:49:44;;;;;;;16.48;9.07;;;5.70;99.90;;;;;;5069139;28;20057;-73
2022/01/15 11:52:41;;;;;;;15.40;8.70;;;5.70;99.90;;;;;;5073864;28;20063;-74
2022/01/15 11:55:18;;;;;;;17.80;9.57;;;5.60;99.90;;;;;;5073378;28;20535;-73
2022/01/15 11:57:49;;;;;;;15.57;8.63;;;5.60;99.90;;;;;;5073341;28;20050;-74
2022/01/15 12:00:17;;;;;;;;;;;5.60;99.90;;;;;;5091112;28;20052;-74
2022/01/15 12:02:57;;;;;;;15.77;9.18;;;5.50;99.90;;;;;;5073632;28;19959;-73
2022/01/15 12:05:29;;;;;;;18.15;10.27;;;5.50;99.90;;;;;;5074915;28;20056;-73
2022/01/15 12:08:30;;;;;;;16.88;9.50;;;5.40;99.90;;;;;;5076428;28;20121;-74
2022/01/15 12:10:58;;;;;;;20.17;11.05;;;5.40;99.90;;;;;;5088608;28;20063;-74
2022/01/15 12:13:29;;;;;;;22.08;11.32;;;5.50;99.90;;;;;;5076257;28;20443;-74
2022/01/15 12:16:26;;;;;;;17.35;9.93;;;5.40;99.90;;;;;;5094069;28;20049;-75
2022/01/15 12:18:54;;;;;;;17.13;9.48;;;5.40;99.90;;;;;;5091086;28;20526;-74
2022/01/15 12:21:55;;;;;;;15.80;9.77;;;5.40;99.90;;;;;;5075039;28;20466;-74
2022/01/15 12:24:53;;;;;;;20.65;11.05;;;5.40;99.90;;;;;;5066165;28;20491;-73
2022/01/15 12:27:25;;;;;;;21.95;11.48;;;5.40;99.90;;;;;;5072743;28;20443;-73
2022/01/15 12:30:00;;;;;;;13.90;8.45;;;5.40;99.90;;;;;;5072849;28;20056;-73
2022/01/15 12:32:32;;;;;;;14.55;8.18;;;5.40;99.90;;;;;;5072899;28;20106;-73
2022/01/15 12:35:00;;;;;;;15.52;8.75;;;5.40;99.90;;;;;;5089777;28;20053;-73
2022/01/15 12:37:27;;;;;;;14.30;8.40;;;5.40;99.90;;;;;;5089445;28;20048;-74
2022/01/15 12:39:54;;;;;;;12.68;7.68;;;5.40;99.90;;;;;;5072806;28;20105;-74
2022/01/15 12:42:28;;;;;;;15.63;9.23;;;5.30;99.90;;;;;;5072415;28;20452;-70
2022/01/15 12:44:55;;;;;;;16.08;9.02;;;5.30;99.90;;;;;;5072652;28;20056;-76
2022/01/15 12:47:23;;;;;;;13.80;8.82;;;5.30;99.90;;;;;;5073180;28;20045;-76
2022/01/15 12:49:54;;;;;;;17.02;10.25;;;5.30;99.90;;;;;;5073011;28;20447;-76
2022/01/15 12:52:23;;;;;;;24.45;10.75;;;5.30;99.90;;;;;;5076741;28;20041;-75
2022/01/15 12:54:51;;;;;;;17.95;10.23;;;5.40;99.90;;;;;;5072868;28;20052;-75
2022/01/15 12:57:37;;;;;;;17.00;10.38;;;5.30;99.90;;;;;;5078738;28;20049;-76
2022/01/15 13:00:06;;;;;;;17.73;9.60;;;5.30;99.90;;;;;;5068554;28;20134;-75
2022/01/15 13:02:34;;;;;;;19.92;9.82;;;5.30;99.90;;;;;;5052194;28;20099;-76
2022/01/15 13:05:01;;;;;;;16.95;9.30;;;5.30;99.90;;;;;;5052702;28;20447;-72
2022/01/15 13:07:28;;;;;;;18.80;10.50;;;5.30;99.90;;;;;;5061543;28;20111;-73
2022/01/15 13:09:55;;;;;;;16.65;9.60;;;5.30;99.90;;;;;;5061184;28;20138;-72
2022/01/15 13:12:21;;;;;;;20.33;11.43;;;5.30;99.90;;;;;;5065889;28;20106;-73
2022/01/15 13:14:48;;;;;;;19.85;11.55;;;5.30;99.90;;;;;;5070896;28;20052;-72